UKLR/RWN METAR and TAF weather

Enter ICAO airport designator
Station Type Date Time Source
UKLR METAR 2020/04/05 15:00 UTC NOAA

UKLR 051500Z 03004MPS 340V090 CAVOK 12/M13 Q1033 NOSIG


Station Type Date Time Source
UKLR Decoded METAR 2020/04/05 15:00 UTC NOAA

Rivne, Ukraine (UKLR) 50-35N 026-08E
Apr 05, 2020 - 11:00 AM EDT / 2020.04.05 1500 UTC
Wind: from the NNE (030 degrees) at 9 MPH (8 KT) (direction variable):0
Visibility: greater than 7 mile(s):0
Temperature: 53 F (12 C)
Dew Point: 8 F (-13 C)
Relative Humidity: 16%
Pressure (altimeter): 30.50 in. Hg (1033 hPa)
ob: UKLR 051500Z 03004MPS 340V090 CAVOK 12/M13 Q1033 NOSIG
cycle: 15

Station Type Date Time Source
UKLR TAF 2019/08/16 12:15 UTC NOAA

TAF TAF UKLR 161105Z 1612/1821 35003MPS 9999 BKN020 SCT023CB

Example: see airport list